Pagrindinis puslapis
METAR-TAF:

METAR-TAF

Oro uostai :

Niujorkas, Niujorko valstija, Jungtinės Amerikos Valstijos

platuma: 40-42-04N, ilguma: 074-00-32W, Aukštis: 2 m

Dabartinis oras

Ataskaita buvo paskelbta 32 minutes, ne 06:56 UTC
Vėjas 15 kt iš Vakarų su gūsio iki 20 kt
Temperatūra 0°C
Drėgmė 55%
Slėgis 1011 hPa
Matomumas: 16.1 km
Su prošvaistėmis ne aukštis 4800 ft
Apsiniaukę ne aukštis 6000 ft

METAR: KJRB 280656Z AUTO 26015G20KT 10SM BKN048 OVC060 00/M08 A2985 RMK AO2 SLP107 T00001078 FZRANO

Laikas: 02:28 (07:28 UTC)


TAF: trūkstamas

Orai ataskaitas ir orų prognozės (METAR, TAF).

turimą stotys yra geltonos ir raudonos taškus žemėlapyje.

Perkelti pele per norėdami pamatyti stoties vardą.

Tada spustelėkite, norėdami matyti oro stebėjimo ir prognozės.

Norėdami pakeisti žemėlapį: spustelėkite ant žalios mygtukų su juodo kryžiaus žemyn,; žalią mygtuką su brūkšneliu, jei norite nutolinti; arba žalių rodyklių gretimoms žemėlapius.


METAR-TAF: